Terminal Aerodrome Forecast
Issued by NWS Louisville, KY

Home | Current Version | Previous Version | Text Only | Print | Product List | Glossary On
Versions: 1 2 3 4 5 6 7 8 9 10 11 12 13 14 15 16 17 18 19 20 21 22 23 24 25 26 27
000
FTUS43 KLMK 241720
TAFBWG
TAF
KBWG 241720Z 2418/2518 21012G17KT 6SM -SHRA VCTS SCT025CB BKN040
      TEMPO 2421/2501 VRB20G30KT 2SM -TSRA BR BKN015CB
     FM250100 19015G25KT 5SM -SHRA VCTS OVC035CB WS020/20050KT
     FM250800 25018G27KT 5SM -SHRA OVC025
     FM251100 28010KT P6SM SCT035 BKN250=

USA.gov is the U.S. government's official web portal to all federal, state and local government web resources and services.